createdAt,value
2023-04-22T00:00:19.558Z,29.30
2023-04-22T00:02:46.875Z,27.70
2023-04-22T00:05:17.029Z,28.00
2023-04-22T00:07:46.105Z,28.45
2023-04-22T00:10:13.356Z,29.00
2023-04-22T00:12:40.452Z,33.72
2023-04-22T00:15:08.361Z,31.85
2023-04-22T00:17:35.052Z,27.48
2023-04-22T00:20:01.822Z,29.92
2023-04-22T00:22:28.657Z,26.23
2023-04-22T00:24:55.680Z,28.88
2023-04-22T00:27:22.409Z,31.05
2023-04-22T00:29:49.427Z,28.77
2023-04-22T00:32:16.222Z,29.27
2023-04-22T00:34:42.895Z,26.83
2023-04-22T00:37:09.621Z,24.23
2023-04-22T00:39:39.361Z,24.20
2023-04-22T00:42:07.942Z,25.50
2023-04-22T00:44:36.244Z,25.00
2023-04-22T00:47:03.650Z,22.88
2023-04-22T00:49:31.360Z,28.23
2023-04-22T00:51:58.009Z,28.77
2023-04-22T00:54:24.757Z,26.15
2023-04-22T00:56:51.673Z,26.45
2023-04-22T00:59:18.791Z,24.95
2023-04-22T01:01:45.649Z,25.35
2023-04-22T01:04:14.395Z,25.48
2023-04-22T01:06:43.549Z,24.35
2023-04-22T01:09:10.384Z,24.48
2023-04-22T01:11:37.191Z,24.58
2023-04-22T01:14:04.287Z,23.38
2023-04-22T01:16:35.646Z,25.52
2023-04-22T01:19:02.534Z,22.73
2023-04-22T01:21:29.730Z,29.98
2023-04-22T01:24:02.313Z,32.17
2023-04-22T01:26:29.062Z,31.17
2023-04-22T01:28:55.974Z,32.85
2023-04-22T01:31:23.735Z,32.70
2023-04-22T01:33:51.398Z,29.83
2023-04-22T01:36:18.238Z,28.63
2023-04-22T01:38:45.493Z,27.33
2023-04-22T01:41:13.850Z,28.08
2023-04-22T01:43:40.544Z,28.52
2023-04-22T01:46:07.711Z,26.60
2023-04-22T01:48:35.689Z,25.10
2023-04-22T01:51:03.334Z,27.40
2023-04-22T01:53:30.708Z,32.83
2023-04-22T01:55:57.402Z,34.90
2023-04-22T01:58:24.065Z,27.45
2023-04-22T02:00:50.826Z,28.85
2023-04-22T02:03:17.636Z,34.30
2023-04-22T02:05:44.401Z,30.27
2023-04-22T02:08:11.191Z,30.95
2023-04-22T02:10:37.957Z,27.48
2023-04-22T02:13:04.706Z,20.00
2023-04-22T02:15:31.564Z,18.02
2023-04-22T02:17:58.407Z,16.50
2023-04-22T02:20:25.084Z,17.00
2023-04-22T02:22:52.059Z,15.30
2023-04-22T02:25:18.982Z,16.88
2023-04-22T02:27:45.919Z,14.63
2023-04-22T02:30:12.826Z,14.68
2023-04-22T02:32:40.316Z,16.65
2023-04-22T02:35:07.571Z,15.77
2023-04-22T02:37:34.378Z,16.25
2023-04-22T02:40:01.088Z,16.30
2023-04-22T02:42:27.810Z,17.38
2023-04-22T02:44:54.520Z,16.60
2023-04-22T02:47:21.985Z,17.85
2023-04-22T02:49:48.705Z,19.00
2023-04-22T02:52:15.727Z,21.92
2023-04-22T02:54:42.474Z,21.13
2023-04-22T02:57:09.168Z,20.52
2023-04-22T02:59:38.042Z,20.48
2023-04-22T03:02:06.872Z,17.10
2023-04-22T03:04:33.849Z,16.60
2023-04-22T03:07:00.664Z,16.58
2023-04-22T03:09:27.334Z,17.08
2023-04-22T03:11:54.000Z,16.80
2023-04-22T03:14:20.849Z,18.75
2023-04-22T03:16:47.621Z,17.70
2023-04-22T03:19:14.454Z,18.23
2023-04-22T03:21:41.335Z,18.10
2023-04-22T03:24:08.066Z,16.67
2023-04-22T03:26:34.838Z,17.15
2023-04-22T03:29:01.993Z,16.77
2023-04-22T03:31:28.757Z,17.90
2023-04-22T03:33:55.478Z,16.27
2023-04-22T03:36:22.192Z,34.65
2023-04-22T03:38:49.103Z,52.08
2023-04-22T03:41:15.821Z,51.72
2023-04-22T03:43:42.556Z,49.42
2023-04-22T03:46:09.431Z,46.95
2023-04-22T03:48:36.291Z,33.55
2023-04-22T03:51:03.530Z,33.50
2023-04-22T03:53:30.237Z,27.13
2023-04-22T03:55:57.058Z,25.38
2023-04-22T03:58:23.888Z,28.85
2023-04-22T04:00:50.667Z,24.88
2023-04-22T04:03:17.502Z,31.08
2023-04-22T04:05:44.408Z,23.42
2023-04-22T04:08:11.314Z,19.80
2023-04-22T04:10:38.034Z,19.67
2023-04-22T04:13:04.849Z,24.33
2023-04-22T04:15:32.726Z,27.52
2023-04-22T04:18:01.437Z,28.63
2023-04-22T04:20:28.308Z,26.52
2023-04-22T04:22:55.046Z,30.02
2023-04-22T04:25:21.811Z,28.25
2023-04-22T04:27:48.714Z,27.52
2023-04-22T04:30:16.394Z,26.90
2023-04-22T04:32:45.668Z,21.50
2023-04-22T04:35:17.562Z,33.15
2023-04-22T04:37:44.389Z,36.53
2023-04-22T04:40:12.523Z,39.28
2023-04-22T04:42:39.400Z,45.95
2023-04-22T04:45:07.712Z,45.20
2023-04-22T04:47:34.625Z,45.72
2023-04-22T04:50:04.556Z,45.63
2023-04-22T04:52:31.801Z,45.38
2023-04-22T04:54:58.705Z,42.65
2023-04-22T04:57:26.185Z,33.58
2023-04-22T04:59:52.849Z,33.67
2023-04-22T05:02:19.926Z,33.40
2023-04-22T05:04:47.011Z,32.63
2023-04-22T05:07:14.311Z,32.28
2023-04-22T05:09:41.855Z,28.60
2023-04-22T05:12:08.922Z,35.63
2023-04-22T05:14:35.659Z,30.75
2023-04-22T05:17:02.854Z,28.58
2023-04-22T05:19:30.000Z,28.25
2023-04-22T05:21:56.667Z,21.35
2023-04-22T05:24:23.344Z,23.85
2023-04-22T05:26:50.467Z,23.92
2023-04-22T05:29:17.418Z,25.27
2023-04-22T05:31:44.390Z,25.00
2023-04-22T05:34:12.520Z,20.88
2023-04-22T05:36:39.368Z,18.85
2023-04-22T05:39:06.694Z,20.02
2023-04-22T05:41:33.555Z,18.98
2023-04-22T05:44:01.235Z,14.70
2023-04-22T05:46:27.989Z,22.15
2023-04-22T05:48:55.933Z,26.10
2023-04-22T05:51:26.750Z,21.33
2023-04-22T05:53:53.485Z,14.10
2023-04-22T05:56:21.419Z,11.43
2023-04-22T05:58:48.173Z,13.23
2023-04-22T06:01:15.013Z,14.50
2023-04-22T06:03:42.043Z,14.13
2023-04-22T06:06:09.058Z,12.25
2023-04-22T06:08:35.787Z,12.07
2023-04-22T06:11:02.715Z,10.98
2023-04-22T06:13:29.381Z,8.90
2023-04-22T06:15:56.561Z,9.25
2023-04-22T06:18:23.337Z,8.30
2023-04-22T06:20:52.024Z,8.40
2023-04-22T06:23:18.711Z,7.72
2023-04-22T06:25:45.493Z,8.23
2023-04-22T06:28:12.144Z,6.38
2023-04-22T06:30:38.783Z,7.68
2023-04-22T06:33:05.435Z,9.65
2023-04-22T06:35:32.295Z,8.48
2023-04-22T06:37:59.015Z,8.25
2023-04-22T06:40:25.840Z,13.25
2023-04-22T06:42:52.479Z,8.82
2023-04-22T06:45:20.438Z,9.88
2023-04-22T06:47:47.425Z,8.40
2023-04-22T06:50:14.133Z,10.25
2023-04-22T06:52:40.848Z,8.85
2023-04-22T06:55:07.778Z,7.55
2023-04-22T06:57:34.510Z,7.50
2023-04-22T07:00:01.200Z,7.30
2023-04-22T07:02:28.005Z,7.10
2023-04-22T07:04:54.842Z,11.50
2023-04-22T07:07:21.623Z,8.30
2023-04-22T07:09:48.668Z,6.55
2023-04-22T07:12:17.974Z,8.15
2023-04-22T07:14:45.764Z,7.80
2023-04-22T07:17:12.700Z,8.10
2023-04-22T07:19:39.827Z,6.50
2023-04-22T07:22:06.990Z,7.78
2023-04-22T07:24:33.717Z,6.80
2023-04-22T07:27:01.526Z,8.07
2023-04-22T07:29:28.210Z,7.68
2023-04-22T07:31:54.951Z,8.23
2023-04-22T07:34:21.696Z,7.00
2023-04-22T07:36:51.488Z,6.72
2023-04-22T07:39:18.334Z,5.75
2023-04-22T07:41:45.131Z,6.75
2023-04-22T07:44:16.477Z,9.75
2023-04-22T07:46:43.709Z,8.55
2023-04-22T07:49:10.486Z,9.15
2023-04-22T07:51:37.103Z,9.32
2023-04-22T07:54:04.004Z,12.80
2023-04-22T07:56:30.803Z,13.48
2023-04-22T07:58:57.477Z,11.00
2023-04-22T08:01:24.403Z,7.88
2023-04-22T08:03:51.389Z,7.72
2023-04-22T08:06:18.339Z,7.75
2023-04-22T08:08:45.130Z,7.45
2023-04-22T08:11:11.930Z,8.93
2023-04-22T08:13:38.592Z,10.88
2023-04-22T08:16:07.520Z,9.68
2023-04-22T08:18:34.310Z,11.90
2023-04-22T08:21:02.118Z,9.55
2023-04-22T08:23:28.833Z,12.02
2023-04-22T08:25:55.717Z,12.13
2023-04-22T08:28:22.484Z,13.35
2023-04-22T08:30:49.166Z,12.77
2023-04-22T08:33:16.643Z,12.98
2023-04-22T08:35:43.434Z,13.63
2023-04-22T08:38:10.093Z,10.77
2023-04-22T08:40:40.494Z,17.60
2023-04-22T08:43:07.339Z,17.48
2023-04-22T08:45:34.076Z,10.32
2023-04-22T08:48:02.409Z,16.65
2023-04-22T08:50:30.272Z,11.68
2023-04-22T08:52:57.886Z,11.25
2023-04-22T08:55:26.714Z,14.00
2023-04-22T08:57:54.168Z,15.60
2023-04-22T09:00:21.237Z,15.95
2023-04-22T09:02:50.632Z,12.43
2023-04-22T09:05:18.410Z,14.50
2023-04-22T09:07:45.440Z,10.75
2023-04-22T09:10:12.114Z,12.43
2023-04-22T09:12:41.164Z,14.90
2023-04-22T09:15:09.003Z,16.85
2023-04-22T09:17:38.388Z,12.70
2023-04-22T09:20:07.303Z,13.52
2023-04-22T09:22:40.365Z,11.63
2023-04-22T09:25:28.520Z,20.80
2023-04-22T09:27:57.363Z,15.85
2023-04-22T09:30:32.894Z,13.52
2023-04-22T09:33:02.032Z,15.77
2023-04-22T09:35:29.839Z,12.52
2023-04-22T09:37:57.734Z,11.73
2023-04-22T09:40:25.735Z,13.90
2023-04-22T09:42:54.668Z,14.73
2023-04-22T09:45:38.778Z,12.48
2023-04-22T09:48:16.147Z,11.57
2023-04-22T09:50:48.697Z,13.50
2023-04-22T09:53:18.026Z,11.38
2023-04-22T09:55:47.820Z,7.72
2023-04-22T09:58:16.761Z,8.40
2023-04-22T10:00:47.684Z,9.13
2023-04-22T10:03:15.699Z,10.43
2023-04-22T10:05:45.011Z,14.23
2023-04-22T10:08:13.397Z,10.60
2023-04-22T10:10:40.642Z,10.75
2023-04-22T10:13:11.134Z,18.98
2023-04-22T10:15:49.521Z,15.02
2023-04-22T10:18:21.707Z,9.45
2023-04-22T10:20:50.237Z,11.55
2023-04-22T10:23:22.194Z,8.30
2023-04-22T10:25:54.373Z,10.43
2023-04-22T10:28:22.704Z,10.60
2023-04-22T10:30:49.979Z,10.85
2023-04-22T10:33:28.625Z,16.05
2023-04-22T10:36:20.499Z,13.75
2023-04-22T10:38:50.236Z,11.38
2023-04-22T10:41:17.298Z,10.90
2023-04-22T10:43:49.269Z,19.50
2023-04-22T10:46:40.365Z,31.20
2023-04-22T10:49:07.746Z,18.48
2023-04-22T10:51:49.814Z,16.63
2023-04-22T10:54:27.355Z,12.82
2023-04-22T10:57:12.367Z,12.35
2023-04-22T10:59:45.942Z,16.10
2023-04-22T11:02:15.162Z,14.73
2023-04-22T11:04:42.549Z,14.00
2023-04-22T11:07:20.437Z,12.77
2023-04-22T11:09:51.176Z,9.90
2023-04-22T11:12:38.557Z,8.48
2023-04-22T11:15:05.809Z,7.45
2023-04-22T11:17:32.587Z,7.93
2023-04-22T11:19:59.763Z,8.85
2023-04-22T11:22:27.207Z,8.75
2023-04-22T11:24:58.348Z,9.88
2023-04-22T11:27:30.384Z,10.05
2023-04-22T11:30:03.680Z,9.20
2023-04-22T11:32:31.598Z,11.45
2023-04-22T11:34:58.518Z,10.27
2023-04-22T11:37:25.472Z,10.77
2023-04-22T11:40:13.652Z,9.85
2023-04-22T11:42:39.901Z,9.82
2023-04-22T11:45:07.877Z,9.40
2023-04-22T11:47:35.313Z,11.05
2023-04-22T11:50:05.220Z,9.82
2023-04-22T11:52:48.174Z,10.27
2023-04-22T11:55:17.697Z,7.63
2023-04-22T11:57:46.128Z,11.20
2023-04-22T12:00:15.152Z,20.73
2023-04-22T12:02:42.170Z,18.20
2023-04-22T12:05:15.431Z,13.15
2023-04-22T12:07:43.381Z,11.02
2023-04-22T12:10:11.224Z,22.60
2023-04-22T12:12:40.190Z,11.70
2023-04-22T12:15:13.646Z,8.93
2023-04-22T12:17:40.941Z,9.65
2023-04-22T12:20:12.809Z,8.38
2023-04-22T12:22:39.951Z,7.88
2023-04-22T12:25:07.106Z,9.98
2023-04-22T12:27:34.107Z,15.93
2023-04-22T12:30:00.770Z,14.57
2023-04-22T12:32:29.048Z,22.25
2023-04-22T12:34:56.335Z,6.65
2023-04-22T12:37:23.049Z,9.35
2023-04-22T12:39:49.733Z,16.48
2023-04-22T12:42:16.403Z,13.98
2023-04-22T12:44:43.876Z,13.10
2023-04-22T12:47:10.730Z,17.00
2023-04-22T12:49:38.679Z,13.95
2023-04-22T12:52:05.670Z,16.30
2023-04-22T12:54:32.705Z,18.73
2023-04-22T12:56:59.531Z,10.15
2023-04-22T12:59:26.242Z,8.95
2023-04-22T13:01:54.951Z,15.38
2023-04-22T13:04:21.953Z,8.93
2023-04-22T13:06:56.186Z,15.43
2023-04-22T13:09:26.347Z,14.85
2023-04-22T13:11:53.285Z,19.60
2023-04-22T13:14:20.018Z,13.30
2023-04-22T13:16:46.758Z,13.48
2023-04-22T13:19:14.047Z,14.15
2023-04-22T13:21:40.894Z,13.45
2023-04-22T13:24:07.803Z,14.70
2023-04-22T13:26:36.274Z,19.38
2023-04-22T13:29:03.149Z,16.13
2023-04-22T13:31:29.806Z,22.00
2023-04-22T13:33:56.617Z,19.00
2023-04-22T13:36:23.459Z,16.13
2023-04-22T13:38:51.231Z,45.72
2023-04-22T13:41:18.627Z,37.05
2023-04-22T13:43:45.583Z,24.95
2023-04-22T13:46:12.381Z,15.90
2023-04-22T13:48:39.286Z,16.15
2023-04-22T13:51:06.049Z,20.25
2023-04-22T13:53:34.552Z,25.98
2023-04-22T13:56:01.483Z,21.10
2023-04-22T13:58:28.389Z,16.02
2023-04-22T14:00:55.554Z,16.80
2023-04-22T14:03:22.789Z,18.42
2023-04-22T14:05:49.736Z,20.73
2023-04-22T14:08:16.686Z,18.42
2023-04-22T14:10:51.176Z,16.67
2023-04-22T14:13:18.822Z,23.98
2023-04-22T14:15:45.455Z,17.58
2023-04-22T14:18:12.721Z,19.40
2023-04-22T14:20:39.416Z,17.25
2023-04-22T14:23:06.089Z,16.88
2023-04-22T14:25:32.846Z,14.50
2023-04-22T14:27:59.544Z,12.43
2023-04-22T14:30:26.452Z,13.93
2023-04-22T14:32:53.250Z,22.27
2023-04-22T14:35:20.066Z,19.98
2023-04-22T14:37:47.096Z,26.52
2023-04-22T14:40:13.929Z,17.40
2023-04-22T14:42:41.357Z,17.35
2023-04-22T14:45:08.389Z,22.58
2023-04-22T14:47:35.306Z,30.45
2023-04-22T14:50:02.801Z,25.55
2023-04-22T14:52:31.287Z,21.52
2023-04-22T14:55:00.131Z,25.92
2023-04-22T14:57:28.528Z,26.02
2023-04-22T14:59:55.385Z,26.40
2023-04-22T15:02:22.210Z,61.72
2023-04-22T15:04:48.947Z,112.05
2023-04-22T15:07:16.130Z,74.55
2023-04-22T15:09:43.260Z,32.83
2023-04-22T15:12:10.388Z,24.50
2023-04-22T15:14:42.321Z,17.75
2023-04-22T15:17:09.601Z,29.20
2023-04-22T15:19:36.820Z,21.58
2023-04-22T15:22:03.590Z,38.55
2023-04-22T15:24:30.665Z,29.85
2023-04-22T15:26:58.158Z,51.60
2023-04-22T15:29:24.834Z,54.13
2023-04-22T15:31:53.946Z,41.28
2023-04-22T15:34:22.110Z,30.77
2023-04-22T15:36:49.156Z,28.55
2023-04-22T15:39:16.079Z,33.45
2023-04-22T15:41:43.587Z,32.08
2023-04-22T15:44:12.404Z,46.33
2023-04-22T15:46:39.801Z,45.83
2023-04-22T15:49:06.535Z,40.67
2023-04-22T15:51:33.202Z,36.65
2023-04-22T15:54:00.536Z,61.78
2023-04-22T15:56:29.499Z,34.10
2023-04-22T15:58:56.115Z,34.42
2023-04-22T16:01:22.962Z,33.35
2023-04-22T16:03:49.917Z,23.08
2023-04-22T16:06:20.336Z,36.60
2023-04-22T16:08:47.113Z,49.22
2023-04-22T16:11:14.896Z,52.97
2023-04-22T16:13:42.608Z,50.70
2023-04-22T16:16:09.838Z,33.40
2023-04-22T16:18:36.770Z,35.90
2023-04-22T16:21:04.004Z,41.40
2023-04-22T16:23:30.996Z,54.72
2023-04-22T16:25:58.541Z,37.15
2023-04-22T16:28:25.399Z,43.60
2023-04-22T16:30:52.124Z,35.47
2023-04-22T16:33:18.916Z,25.63
2023-04-22T16:35:45.605Z,19.70
2023-04-22T16:38:12.402Z,24.58
2023-04-22T16:40:39.867Z,21.25
2023-04-22T16:43:07.366Z,24.60
2023-04-22T16:45:34.215Z,24.23
2023-04-22T16:48:00.918Z,15.23
2023-04-22T16:50:27.674Z,16.88
2023-04-22T16:52:54.483Z,15.93
2023-04-22T16:55:21.167Z,48.45
2023-04-22T16:57:50.658Z,61.88
2023-04-22T17:00:18.695Z,73.28
2023-04-22T17:02:45.817Z,99.05
2023-04-22T17:05:12.691Z,70.35
2023-04-22T17:07:39.404Z,78.82
2023-04-22T17:10:07.305Z,93.00
2023-04-22T17:12:34.296Z,107.95
2023-04-22T17:15:11.373Z,68.63
2023-04-22T17:17:39.240Z,48.92
2023-04-22T17:20:06.729Z,20.77
2023-04-22T17:22:33.522Z,15.35
2023-04-22T17:25:00.267Z,23.60
2023-04-22T17:27:27.193Z,19.67
2023-04-22T17:29:53.958Z,24.48
2023-04-22T17:32:20.917Z,32.20
2023-04-22T17:34:48.013Z,34.65
2023-04-22T17:37:14.892Z,30.75
2023-04-22T17:39:41.954Z,31.13
2023-04-22T17:42:08.696Z,30.50
2023-04-22T17:44:36.199Z,30.73
2023-04-22T17:47:05.202Z,40.33
2023-04-22T17:49:33.491Z,37.90
2023-04-22T17:52:00.489Z,36.78
2023-04-22T17:54:27.296Z,54.40
2023-04-22T17:56:54.025Z,47.92
2023-04-22T17:59:20.706Z,43.50
2023-04-22T18:01:47.411Z,38.85
2023-04-22T18:04:14.490Z,53.97
2023-04-22T18:06:41.534Z,44.05
2023-04-22T18:09:08.454Z,42.28
2023-04-22T18:11:35.519Z,37.92
2023-04-22T18:14:02.713Z,36.08
2023-04-22T18:16:29.457Z,36.22
2023-04-22T18:18:56.298Z,37.80
2023-04-22T18:21:23.188Z,35.05
2023-04-22T18:23:49.829Z,36.53
2023-04-22T18:26:16.732Z,37.92
2023-04-22T18:28:44.663Z,38.10
2023-04-22T18:31:11.465Z,47.08
2023-04-22T18:33:38.212Z,33.80
2023-04-22T18:36:05.904Z,54.15
2023-04-22T18:38:32.720Z,62.90
2023-04-22T18:40:59.433Z,42.60
2023-04-22T18:43:26.424Z,33.50
2023-04-22T18:45:53.139Z,42.03
2023-04-22T18:48:20.398Z,48.00
2023-04-22T18:50:47.097Z,35.58
2023-04-22T18:53:13.768Z,32.47
2023-04-22T18:55:40.618Z,60.88
2023-04-22T18:58:07.375Z,41.65
2023-04-22T19:00:34.184Z,37.40
2023-04-22T19:03:01.579Z,34.60
2023-04-22T19:05:28.418Z,28.42
2023-04-22T19:07:55.150Z,31.88
2023-04-22T19:10:21.908Z,55.40
2023-04-22T19:12:49.055Z,33.42
2023-04-22T19:15:16.113Z,28.77
2023-04-22T19:17:42.912Z,30.67
2023-04-22T19:20:10.436Z,29.42
2023-04-22T19:22:37.125Z,31.20
2023-04-22T19:25:06.081Z,35.53
2023-04-22T19:27:34.469Z,35.65
2023-04-22T19:30:01.271Z,36.05
2023-04-22T19:32:28.078Z,27.02
2023-04-22T19:34:54.821Z,28.52
2023-04-22T19:37:22.068Z,32.05
2023-04-22T19:39:48.896Z,45.58
2023-04-22T19:42:16.263Z,40.92
2023-04-22T19:44:49.451Z,36.80
2023-04-22T19:47:16.530Z,35.80
2023-04-22T19:49:43.801Z,68.43
2023-04-22T19:52:11.992Z,42.45
2023-04-22T19:54:41.492Z,44.95
2023-04-22T19:57:10.269Z,52.67
2023-04-22T19:59:39.846Z,40.85
2023-04-22T20:02:08.055Z,38.72
2023-04-22T20:04:35.599Z,41.97
2023-04-22T20:07:03.180Z,42.90
2023-04-22T20:09:32.940Z,33.28
2023-04-22T20:11:59.941Z,30.52
2023-04-22T20:14:26.900Z,29.20
2023-04-22T20:16:54.518Z,34.28
2023-04-22T20:19:21.442Z,28.65
2023-04-22T20:24:26.097Z,27.67
2023-04-22T20:26:52.898Z,28.52
2023-04-22T20:29:22.340Z,27.40
2023-04-22T20:31:49.320Z,33.67
2023-04-22T20:34:16.805Z,24.70
2023-04-22T20:36:43.618Z,30.77
2023-04-22T20:39:14.249Z,26.55
2023-04-22T20:41:41.559Z,24.60
2023-04-22T20:44:08.700Z,24.88
2023-04-22T20:46:39.456Z,46.25
2023-04-22T20:49:06.715Z,35.20
2023-04-22T20:51:33.993Z,36.10
2023-04-22T20:54:00.685Z,34.88
2023-04-22T20:56:27.552Z,26.20
2023-04-22T20:58:54.561Z,24.05
2023-04-22T21:01:21.383Z,19.40
2023-04-22T21:03:53.110Z,18.13
2023-04-22T21:06:21.262Z,18.67
2023-04-22T21:08:49.210Z,19.67
2023-04-22T21:11:16.469Z,30.83
2023-04-22T21:13:45.055Z,38.38
2023-04-22T21:16:13.755Z,37.28
2023-04-22T21:18:44.536Z,24.73
2023-04-22T21:21:12.398Z,24.13
2023-04-22T21:23:41.691Z,29.02
2023-04-22T21:26:09.985Z,35.83
2023-04-22T21:28:37.403Z,33.45
2023-04-22T21:31:04.522Z,31.48
2023-04-22T21:33:33.106Z,27.35
2023-04-22T21:36:00.155Z,27.00
2023-04-22T21:38:27.139Z,29.20
2023-04-22T21:40:54.388Z,29.90
2023-04-22T21:43:21.177Z,27.55
2023-04-22T21:45:47.838Z,28.70
2023-04-22T21:48:14.568Z,29.20
2023-04-22T21:50:41.351Z,33.97
2023-04-22T21:53:08.158Z,34.38
2023-04-22T21:55:34.931Z,32.10
2023-04-22T21:58:01.827Z,29.00
2023-04-22T22:00:28.846Z,30.48
2023-04-22T22:02:55.753Z,31.27
2023-04-22T22:05:22.542Z,28.80
2023-04-22T22:07:49.385Z,39.00
2023-04-22T22:10:26.442Z,31.52
2023-04-22T22:12:53.104Z,33.03
2023-04-22T22:15:20.362Z,41.72
2023-04-22T22:17:54.245Z,43.75
2023-04-22T22:20:21.095Z,43.85
2023-04-22T22:22:47.818Z,37.30
2023-04-22T22:25:16.071Z,28.75
2023-04-22T22:27:48.810Z,33.25
2023-04-22T22:30:18.311Z,34.03
2023-04-22T22:32:45.184Z,31.85
2023-04-22T22:35:12.114Z,30.38
2023-04-22T22:37:38.906Z,32.15
2023-04-22T22:40:06.374Z,65.82
2023-04-22T22:42:33.528Z,40.00
2023-04-22T22:45:00.366Z,30.02
2023-04-22T22:47:27.239Z,21.92
2023-04-22T22:49:53.960Z,24.35
2023-04-22T22:52:20.789Z,25.45
2023-04-22T22:54:49.017Z,27.13
2023-04-22T22:57:16.314Z,31.45
2023-04-22T22:59:43.153Z,23.85
2023-04-22T23:02:10.311Z,31.40
2023-04-22T23:04:39.475Z,22.88
2023-04-22T23:07:06.394Z,21.50
2023-04-22T23:09:33.065Z,21.85
2023-04-22T23:11:59.792Z,21.88
2023-04-22T23:14:30.242Z,23.30
2023-04-22T23:16:57.037Z,20.23
2023-04-22T23:19:24.137Z,23.38
2023-04-22T23:21:51.532Z,21.63
2023-04-22T23:24:18.525Z,25.02
2023-04-22T23:26:45.928Z,23.52
2023-04-22T23:29:12.896Z,24.40
2023-04-22T23:31:41.770Z,25.00
2023-04-22T23:34:09.454Z,23.67
2023-04-22T23:36:37.220Z,24.77
2023-04-22T23:39:05.856Z,26.27
2023-04-22T23:41:33.142Z,22.23
2023-04-22T23:43:59.989Z,23.15
2023-04-22T23:46:27.871Z,23.35
2023-04-22T23:48:54.799Z,26.05
2023-04-22T23:51:21.975Z,22.58
2023-04-22T23:53:48.768Z,22.73
2023-04-22T23:56:20.138Z,21.55
2023-04-22T23:58:47.689Z,21.42
